Edmondson, Arkansas
Current Conditions -  °F | °C
As of 2:53 AM on Wednesday 28 Jan 2015 (Local Time) from KAWM Reporting Station
Clear Clear  
Wind Chill: 29°   Ceiling: Unl
Heat Index: 35°   Visibility: 10mi
Dew Point: 31°   Wind: 7mph
Humidity: 85%   Direction: 80°E
Pressure: 30.22"   Gusts: NA
Location:  35.11°N, 90.31°W
Report Text: KAWM 280853Z AUTO 08006KT 10SM CLR 02/M01 A3022 RMK AO2 SLP234 T00171006 50000
Loading
Personal Weather Stations






























Interactive Weather Map New forecast layout! Learn more

10-Day Weather Forecast

Advertisements
Track Severe Weather on mobile